sensor_id;sensor_type;location;lat;lon;timestamp;temperature;humidity
27823;DHT22;29019;47.630;8.262;2023-03-21T00:02:28;20.90;33.20
27823;DHT22;29019;47.630;8.262;2023-03-21T00:06:29;20.90;33.20
27823;DHT22;29019;47.630;8.262;2023-03-21T00:10:30;20.80;33.20
27823;DHT22;29019;47.630;8.262;2023-03-21T00:14:30;20.90;33.30
27823;DHT22;29019;47.630;8.262;2023-03-21T00:18:31;20.80;33.30
27823;DHT22;29019;47.630;8.262;2023-03-21T00:22:33;20.80;33.30
27823;DHT22;29019;47.630;8.262;2023-03-21T00:26:34;20.80;33.20
27823;DHT22;29019;47.630;8.262;2023-03-21T00:30:35;20.80;33.20
27823;DHT22;29019;47.630;8.262;2023-03-21T00:34:35;20.80;33.30
27823;DHT22;29019;47.630;8.262;2023-03-21T00:38:37;20.70;33.20
27823;DHT22;29019;47.630;8.262;2023-03-21T00:42:37;20.70;33.20
27823;DHT22;29019;47.630;8.262;2023-03-21T00:46:38;20.70;33.20
27823;DHT22;29019;47.630;8.262;2023-03-21T00:50:38;20.70;33.20
27823;DHT22;29019;47.630;8.262;2023-03-21T00:54:39;20.60;33.20
27823;DHT22;29019;47.630;8.262;2023-03-21T00:58:40;20.70;33.30
27823;DHT22;29019;47.630;8.262;2023-03-21T01:02:40;20.70;33.30
27823;DHT22;29019;47.630;8.262;2023-03-21T01:06:56;20.60;33.20
27823;DHT22;29019;47.630;8.262;2023-03-21T01:10:59;20.60;33.10
27823;DHT22;29019;47.630;8.262;2023-03-21T01:15:00;20.60;33.20
27823;DHT22;29019;47.630;8.262;2023-03-21T01:19:01;20.60;33.10
27823;DHT22;29019;47.630;8.262;2023-03-21T01:23:01;20.60;33.20
27823;DHT22;29019;47.630;8.262;2023-03-21T01:27:02;20.60;33.20
27823;DHT22;29019;47.630;8.262;2023-03-21T01:31:03;20.60;33.20
27823;DHT22;29019;47.630;8.262;2023-03-21T01:35:04;20.50;33.20
27823;DHT22;29019;47.630;8.262;2023-03-21T01:39:04;20.60;33.20
27823;DHT22;29019;47.630;8.262;2023-03-21T01:43:14;20.50;33.30
27823;DHT22;29019;47.630;8.262;2023-03-21T01:47:18;20.50;33.80
27823;DHT22;29019;47.630;8.262;2023-03-21T01:51:19;20.50;33.20
27823;DHT22;29019;47.630;8.262;2023-03-21T01:55:21;20.50;33.20
27823;DHT22;29019;47.630;8.262;2023-03-21T02:03:22;20.50;33.20
27823;DHT22;29019;47.630;8.262;2023-03-21T02:07:30;20.40;33.20
27823;DHT22;29019;47.630;8.262;2023-03-21T02:11:31;20.40;33.20
27823;DHT22;29019;47.630;8.262;2023-03-21T02:15:32;20.40;33.20
27823;DHT22;29019;47.630;8.262;2023-03-21T02:28:10;20.30;33.20
27823;DHT22;29019;47.630;8.262;2023-03-21T02:32:18;20.30;33.20
27823;DHT22;29019;47.630;8.262;2023-03-21T02:36:25;20.30;33.20
27823;DHT22;29019;47.630;8.262;2023-03-21T02:40:31;20.30;33.20
27823;DHT22;29019;47.630;8.262;2023-03-21T02:48:57;20.20;33.10
27823;DHT22;29019;47.630;8.262;2023-03-21T02:52:58;20.20;33.10
27823;DHT22;29019;47.630;8.262;2023-03-21T02:57:00;20.20;33.10
27823;DHT22;29019;47.630;8.262;2023-03-21T03:01:03;20.20;33.20
27823;DHT22;29019;47.630;8.262;2023-03-21T03:05:11;20.20;33.10
27823;DHT22;29019;47.630;8.262;2023-03-21T03:09:18;20.20;33.20
27823;DHT22;29019;47.630;8.262;2023-03-21T03:13:28;20.20;33.20
27823;DHT22;29019;47.630;8.262;2023-03-21T03:21:49;20.20;33.10
27823;DHT22;29019;47.630;8.262;2023-03-21T03:26:37;20.20;33.10
27823;DHT22;29019;47.630;8.262;2023-03-21T03:30:11;20.10;33.10
27823;DHT22;29019;47.630;8.262;2023-03-21T03:34:14;20.10;33.10
27823;DHT22;29019;47.630;8.262;2023-03-21T03:38:15;20.10;33.20
27823;DHT22;29019;47.630;8.262;2023-03-21T03:42:18;20.10;33.10
27823;DHT22;29019;47.630;8.262;2023-03-21T03:46:33;20.10;33.20
27823;DHT22;29019;47.630;8.262;2023-03-21T03:50:39;20.00;33.10
27823;DHT22;29019;47.630;8.262;2023-03-21T03:54:42;20.00;33.20
27823;DHT22;29019;47.630;8.262;2023-03-21T03:58:43;20.00;33.20
27823;DHT22;29019;47.630;8.262;2023-03-21T04:02:43;20.00;33.10
27823;DHT22;29019;47.630;8.262;2023-03-21T04:06:45;20.00;33.10
27823;DHT22;29019;47.630;8.262;2023-03-21T04:10:50;20.00;33.10
27823;DHT22;29019;47.630;8.262;2023-03-21T04:14:51;20.00;33.10
27823;DHT22;29019;47.630;8.262;2023-03-21T04:18:51;19.90;33.10
27823;DHT22;29019;47.630;8.262;2023-03-21T04:22:52;19.90;33.10
27823;DHT22;29019;47.630;8.262;2023-03-21T04:26:53;19.90;33.10
27823;DHT22;29019;47.630;8.262;2023-03-21T04:30:53;19.90;33.10
27823;DHT22;29019;47.630;8.262;2023-03-21T04:34:57;20.00;33.10
27823;DHT22;29019;47.630;8.262;2023-03-21T04:38:57;19.90;33.60
27823;DHT22;29019;47.630;8.262;2023-03-21T04:43:01;20.00;33.10
27823;DHT22;29019;47.630;8.262;2023-03-21T04:47:01;20.00;33.10
27823;DHT22;29019;47.630;8.262;2023-03-21T04:51:02;19.90;33.00
27823;DHT22;29019;47.630;8.262;2023-03-21T04:55:02;19.90;33.00
27823;DHT22;29019;47.630;8.262;2023-03-21T04:59:10;19.90;33.00
27823;DHT22;29019;47.630;8.262;2023-03-21T05:03:11;19.90;33.00
27823;DHT22;29019;47.630;8.262;2023-03-21T05:07:18;20.00;33.00
27823;DHT22;29019;47.630;8.262;2023-03-21T05:11:21;19.90;33.00
27823;DHT22;29019;47.630;8.262;2023-03-21T05:15:21;20.00;33.00
27823;DHT22;29019;47.630;8.262;2023-03-21T05:19:24;20.10;32.80
27823;DHT22;29019;47.630;8.262;2023-03-21T05:23:33;20.20;32.90
27823;DHT22;29019;47.630;8.262;2023-03-21T05:27:37;20.30;32.80
27823;DHT22;29019;47.630;8.262;2023-03-21T05:31:38;20.40;32.70
27823;DHT22;29019;47.630;8.262;2023-03-21T05:35:38;20.50;32.70
27823;DHT22;29019;47.630;8.262;2023-03-21T05:39:39;20.60;32.60
27823;DHT22;29019;47.630;8.262;2023-03-21T05:43:39;20.70;32.60
27823;DHT22;29019;47.630;8.262;2023-03-21T05:47:40;20.70;32.60
27823;DHT22;29019;47.630;8.262;2023-03-21T05:51:40;20.70;32.60
27823;DHT22;29019;47.630;8.262;2023-03-21T05:55:41;20.70;32.60
27823;DHT22;29019;47.630;8.262;2023-03-21T05:59:41;20.80;32.60
27823;DHT22;29019;47.630;8.262;2023-03-21T06:03:42;20.80;32.60
27823;DHT22;29019;47.630;8.262;2023-03-21T06:07:42;20.70;32.60
27823;DHT22;29019;47.630;8.262;2023-03-21T06:11:45;20.70;32.60
27823;DHT22;29019;47.630;8.262;2023-03-21T06:15:46;20.70;32.60
27823;DHT22;29019;47.630;8.262;2023-03-21T06:19:46;20.70;32.60
27823;DHT22;29019;47.630;8.262;2023-03-21T06:23:47;20.70;32.60
27823;DHT22;29019;47.630;8.262;2023-03-21T06:27:47;20.70;32.60
27823;DHT22;29019;47.630;8.262;2023-03-21T06:31:48;20.70;32.60
27823;DHT22;29019;47.630;8.262;2023-03-21T06:35:52;20.70;32.60
27823;DHT22;29019;47.630;8.262;2023-03-21T06:39:52;20.70;32.50
27823;DHT22;29019;47.630;8.262;2023-03-21T06:43:53;20.80;32.30
27823;DHT22;29019;47.630;8.262;2023-03-21T06:47:53;20.80;32.10
27823;DHT22;29019;47.630;8.262;2023-03-21T06:51:53;20.80;32.20
27823;DHT22;29019;47.630;8.262;2023-03-21T06:55:54;20.80;32.30
27823;DHT22;29019;47.630;8.262;2023-03-21T06:59:55;20.70;32.30
27823;DHT22;29019;47.630;8.262;2023-03-21T07:03:56;20.70;32.40
27823;DHT22;29019;47.630;8.262;2023-03-21T07:07:58;20.70;32.40
27823;DHT22;29019;47.630;8.262;2023-03-21T07:12:00;20.70;32.40
27823;DHT22;29019;47.630;8.262;2023-03-21T07:16:00;20.80;32.40
27823;DHT22;29019;47.630;8.262;2023-03-21T07:20:01;20.80;32.40
27823;DHT22;29019;47.630;8.262;2023-03-21T07:24:03;20.90;32.40
27823;DHT22;29019;47.630;8.262;2023-03-21T07:28:03;20.90;32.40
27823;DHT22;29019;47.630;8.262;2023-03-21T07:32:08;20.90;32.40
27823;DHT22;29019;47.630;8.262;2023-03-21T07:36:09;20.90;32.40
27823;DHT22;29019;47.630;8.262;2023-03-21T07:40:12;20.90;32.30
27823;DHT22;29019;47.630;8.262;2023-03-21T07:44:12;20.90;32.30
27823;DHT22;29019;47.630;8.262;2023-03-21T07:48:12;21.00;32.30
27823;DHT22;29019;47.630;8.262;2023-03-21T07:52:13;21.00;32.30
27823;DHT22;29019;47.630;8.262;2023-03-21T07:56:13;21.00;32.30
27823;DHT22;29019;47.630;8.262;2023-03-21T08:00:15;20.90;32.30
27823;DHT22;29019;47.630;8.262;2023-03-21T08:04:22;20.90;32.40
27823;DHT22;29019;47.630;8.262;2023-03-21T08:08:22;20.80;32.40
27823;DHT22;29019;47.630;8.262;2023-03-21T08:12:22;20.80;32.50
27823;DHT22;29019;47.630;8.262;2023-03-21T08:16:23;20.80;32.50
27823;DHT22;29019;47.630;8.262;2023-03-21T08:20:23;20.80;32.60
27823;DHT22;29019;47.630;8.262;2023-03-21T08:24:24;20.80;32.50
27823;DHT22;29019;47.630;8.262;2023-03-21T08:28:25;20.80;32.60
27823;DHT22;29019;47.630;8.262;2023-03-21T08:32:26;20.80;32.60
27823;DHT22;29019;47.630;8.262;2023-03-21T08:36:30;20.80;32.60
27823;DHT22;29019;47.630;8.262;2023-03-21T08:40:31;20.80;32.60
27823;DHT22;29019;47.630;8.262;2023-03-21T08:44:32;20.70;32.60
27823;DHT22;29019;47.630;8.262;2023-03-21T08:48:32;20.70;32.60
27823;DHT22;29019;47.630;8.262;2023-03-21T08:52:33;20.70;32.60
27823;DHT22;29019;47.630;8.262;2023-03-21T08:56:33;20.70;32.60
27823;DHT22;29019;47.630;8.262;2023-03-21T09:00:34;20.70;32.60
27823;DHT22;29019;47.630;8.262;2023-03-21T09:04:35;20.70;32.60
27823;DHT22;29019;47.630;8.262;2023-03-21T09:08:36;20.70;32.60
27823;DHT22;29019;47.630;8.262;2023-03-21T09:12:36;20.70;32.60
27823;DHT22;29019;47.630;8.262;2023-03-21T09:16:37;20.70;32.60
27823;DHT22;29019;47.630;8.262;2023-03-21T09:20:37;20.70;32.60
27823;DHT22;29019;47.630;8.262;2023-03-21T09:24:39;20.60;32.60
27823;DHT22;29019;47.630;8.262;2023-03-21T09:28:41;20.70;32.60
27823;DHT22;29019;47.630;8.262;2023-03-21T09:32:42;20.70;32.70
27823;DHT22;29019;47.630;8.262;2023-03-21T09:36:47;20.70;32.70
27823;DHT22;29019;47.630;8.262;2023-03-21T09:40:55;20.60;32.70
27823;DHT22;29019;47.630;8.262;2023-03-21T09:45:06;20.60;32.70
27823;DHT22;29019;47.630;8.262;2023-03-21T09:53:17;20.60;32.60
27823;DHT22;29019;47.630;8.262;2023-03-21T09:57:37;20.60;32.60
27823;DHT22;29019;47.630;8.262;2023-03-21T10:01:39;20.70;32.60
27823;DHT22;29019;47.630;8.262;2023-03-21T10:05:44;20.60;32.60
27823;DHT22;29019;47.630;8.262;2023-03-21T10:09:46;20.60;32.60
27823;DHT22;29019;47.630;8.262;2023-03-21T10:13:48;20.60;32.70
27823;DHT22;29019;47.630;8.262;2023-03-21T10:17:52;20.60;32.60
27823;DHT22;29019;47.630;8.262;2023-03-21T10:21:54;20.60;32.70
27823;DHT22;29019;47.630;8.262;2023-03-21T10:25:58;20.60;32.70
27823;DHT22;29019;47.630;8.262;2023-03-21T10:30:00;20.70;32.70
27823;DHT22;29019;47.630;8.262;2023-03-21T10:34:02;20.70;32.60
27823;DHT22;29019;47.630;8.262;2023-03-21T10:38:06;20.70;32.70
27823;DHT22;29019;47.630;8.262;2023-03-21T10:42:14;20.70;32.70
27823;DHT22;29019;47.630;8.262;2023-03-21T10:46:18;20.70;32.70
27823;DHT22;29019;47.630;8.262;2023-03-21T10:50:22;20.70;32.70
27823;DHT22;29019;47.630;8.262;2023-03-21T10:54:29;20.70;32.70
27823;DHT22;29019;47.630;8.262;2023-03-21T10:58:32;20.70;32.70
27823;DHT22;29019;47.630;8.262;2023-03-21T11:02:34;20.70;32.80
27823;DHT22;29019;47.630;8.262;2023-03-21T11:06:37;20.70;32.70
27823;DHT22;29019;47.630;8.262;2023-03-21T11:14:50;20.70;32.70
27823;DHT22;29019;47.630;8.262;2023-03-21T11:18:51;20.70;32.70
27823;DHT22;29019;47.630;8.262;2023-03-21T11:22:55;20.70;32.70
27823;DHT22;29019;47.630;8.262;2023-03-21T11:26:56;20.70;32.70
27823;DHT22;29019;47.630;8.262;2023-03-21T11:30:58;20.70;32.70
27823;DHT22;29019;47.630;8.262;2023-03-21T11:35:00;20.70;32.70
27823;DHT22;29019;47.630;8.262;2023-03-21T11:39:11;20.70;32.70
27823;DHT22;29019;47.630;8.262;2023-03-21T11:47:18;20.80;32.80
27823;DHT22;29019;47.630;8.262;2023-03-21T11:51:23;20.80;32.70
27823;DHT22;29019;47.630;8.262;2023-03-21T11:55:36;20.80;32.70
27823;DHT22;29019;47.630;8.262;2023-03-21T11:59:58;20.80;32.70
27823;DHT22;29019;47.630;8.262;2023-03-21T12:08:21;20.80;32.70
27823;DHT22;29019;47.630;8.262;2023-03-21T12:20:45;20.80;32.70
27823;DHT22;29019;47.630;8.262;2023-03-21T12:24:54;20.80;32.70
27823;DHT22;29019;47.630;8.262;2023-03-21T12:28:59;20.80;32.80
27823;DHT22;29019;47.630;8.262;2023-03-21T12:33:06;20.80;32.70
27823;DHT22;29019;47.630;8.262;2023-03-21T12:45:18;20.90;32.70
27823;DHT22;29019;47.630;8.262;2023-03-21T12:53:26;20.90;32.80
27823;DHT22;29019;47.630;8.262;2023-03-21T12:57:29;20.90;32.70
27823;DHT22;29019;47.630;8.262;2023-03-21T13:01:31;20.90;32.70
27823;DHT22;29019;47.630;8.262;2023-03-21T13:05:39;20.90;32.70
27823;DHT22;29019;47.630;8.262;2023-03-21T13:09:42;20.90;32.70
27823;DHT22;29019;47.630;8.262;2023-03-21T13:18:03;20.90;32.70
27823;DHT22;29019;47.630;8.262;2023-03-21T13:22:12;20.90;32.70
27823;DHT22;29019;47.630;8.262;2023-03-21T13:26:15;20.90;32.70
27823;DHT22;29019;47.630;8.262;2023-03-21T13:30:22;20.90;32.70
27823;DHT22;29019;47.630;8.262;2023-03-21T13:34:25;20.90;32.70
27823;DHT22;29019;47.630;8.262;2023-03-21T13:38:26;20.90;32.70
27823;DHT22;29019;47.630;8.262;2023-03-21T13:42:29;20.90;32.70
27823;DHT22;29019;47.630;8.262;2023-03-21T13:46:45;20.90;32.70
27823;DHT22;29019;47.630;8.262;2023-03-21T13:50:51;20.90;32.80
27823;DHT22;29019;47.630;8.262;2023-03-21T13:54:55;20.90;32.80
27823;DHT22;29019;47.630;8.262;2023-03-21T13:58:57;20.90;32.80
27823;DHT22;29019;47.630;8.262;2023-03-21T14:03:08;20.90;32.70
27823;DHT22;29019;47.630;8.262;2023-03-21T14:07:18;20.90;32.70
27823;DHT22;29019;47.630;8.262;2023-03-21T14:11:20;20.90;32.70
27823;DHT22;29019;47.630;8.262;2023-03-21T14:15:23;20.90;32.70
27823;DHT22;29019;47.630;8.262;2023-03-21T14:19:31;20.90;32.70
27823;DHT22;29019;47.630;8.262;2023-03-21T14:23:31;20.90;32.70
27823;DHT22;29019;47.630;8.262;2023-03-21T14:27:32;20.90;32.70
27823;DHT22;29019;47.630;8.262;2023-03-21T14:31:34;20.90;32.70
27823;DHT22;29019;47.630;8.262;2023-03-21T14:35:34;20.90;32.70
27823;DHT22;29019;47.630;8.262;2023-03-21T14:39:35;20.90;32.70
27823;DHT22;29019;47.630;8.262;2023-03-21T14:43:35;20.90;32.70
27823;DHT22;29019;47.630;8.262;2023-03-21T14:47:36;20.90;32.70
27823;DHT22;29019;47.630;8.262;2023-03-21T14:51:37;20.90;32.70
27823;DHT22;29019;47.630;8.262;2023-03-21T14:55:43;20.90;32.70
27823;DHT22;29019;47.630;8.262;2023-03-21T14:59:43;20.90;32.70
27823;DHT22;29019;47.630;8.262;2023-03-21T15:03:46;20.90;32.70
27823;DHT22;29019;47.630;8.262;2023-03-21T15:07:53;20.90;32.70
27823;DHT22;29019;47.630;8.262;2023-03-21T15:11:56;20.90;32.70
27823;DHT22;29019;47.630;8.262;2023-03-21T15:15:56;20.90;32.70
27823;DHT22;29019;47.630;8.262;2023-03-21T15:19:57;20.90;32.70
27823;DHT22;29019;47.630;8.262;2023-03-21T15:23:59;20.90;32.70
27823;DHT22;29019;47.630;8.262;2023-03-21T15:28:01;20.90;32.70
27823;DHT22;29019;47.630;8.262;2023-03-21T15:32:03;20.90;32.70
27823;DHT22;29019;47.630;8.262;2023-03-21T15:36:07;20.90;32.70
27823;DHT22;29019;47.630;8.262;2023-03-21T15:40:18;20.90;32.70
27823;DHT22;29019;47.630;8.262;2023-03-21T15:44:20;20.90;32.70
27823;DHT22;29019;47.630;8.262;2023-03-21T15:48:24;20.90;32.70
27823;DHT22;29019;47.630;8.262;2023-03-21T15:52:25;20.90;32.70
27823;DHT22;29019;47.630;8.262;2023-03-21T15:56:26;20.90;32.70
27823;DHT22;29019;47.630;8.262;2023-03-21T16:00:39;20.90;33.30
27823;DHT22;29019;47.630;8.262;2023-03-21T16:04:53;20.90;32.80
27823;DHT22;29019;47.630;8.262;2023-03-21T16:13:03;20.90;32.80
27823;DHT22;29019;47.630;8.262;2023-03-21T16:21:24;21.10;32.80
27823;DHT22;29019;47.630;8.262;2023-03-21T16:25:26;21.10;32.70
27823;DHT22;29019;47.630;8.262;2023-03-21T16:29:27;21.20;32.60
27823;DHT22;29019;47.630;8.262;2023-03-21T16:33:27;21.20;32.70
27823;DHT22;29019;47.630;8.262;2023-03-21T16:37:28;21.30;32.60
27823;DHT22;29019;47.630;8.262;2023-03-21T16:41:28;21.40;32.60
27823;DHT22;29019;47.630;8.262;2023-03-21T16:45:28;21.40;32.60
27823;DHT22;29019;47.630;8.262;2023-03-21T16:49:30;21.40;32.60
27823;DHT22;29019;47.630;8.262;2023-03-21T16:53:30;21.50;32.60
27823;DHT22;29019;47.630;8.262;2023-03-21T16:57:31;21.50;32.60
27823;DHT22;29019;47.630;8.262;2023-03-21T17:01:31;21.50;32.60
27823;DHT22;29019;47.630;8.262;2023-03-21T17:05:32;21.50;32.60
27823;DHT22;29019;47.630;8.262;2023-03-21T17:09:33;21.50;32.60
27823;DHT22;29019;47.630;8.262;2023-03-21T17:13:33;21.50;32.60
27823;DHT22;29019;47.630;8.262;2023-03-21T17:17:33;21.50;32.60
27823;DHT22;29019;47.630;8.262;2023-03-21T17:21:34;21.50;32.70
27823;DHT22;29019;47.630;8.262;2023-03-21T17:25:34;21.50;32.70
27823;DHT22;29019;47.630;8.262;2023-03-21T17:29:35;21.50;32.70
27823;DHT22;29019;47.630;8.262;2023-03-21T17:33:35;21.40;32.70
27823;DHT22;29019;47.630;8.262;2023-03-21T17:37:36;21.40;32.60
27823;DHT22;29019;47.630;8.262;2023-03-21T17:41:37;21.40;32.70
27823;DHT22;29019;47.630;8.262;2023-03-21T17:45:38;21.30;32.70
27823;DHT22;29019;47.630;8.262;2023-03-21T17:49:38;21.40;32.90
27823;DHT22;29019;47.630;8.262;2023-03-21T17:53:39;21.30;32.80
27823;DHT22;29019;47.630;8.262;2023-03-21T17:57:39;21.30;32.90
27823;DHT22;29019;47.630;8.262;2023-03-21T18:01:40;21.30;32.80
27823;DHT22;29019;47.630;8.262;2023-03-21T18:05:41;21.30;32.80
27823;DHT22;29019;47.630;8.262;2023-03-21T18:09:42;21.30;32.80
27823;DHT22;29019;47.630;8.262;2023-03-21T18:13:42;21.30;32.80
27823;DHT22;29019;47.630;8.262;2023-03-21T18:17:43;21.40;32.80
27823;DHT22;29019;47.630;8.262;2023-03-21T18:21:43;21.40;32.80
27823;DHT22;29019;47.630;8.262;2023-03-21T18:25:44;21.40;32.90
27823;DHT22;29019;47.630;8.262;2023-03-21T18:29:46;21.50;32.90
27823;DHT22;29019;47.630;8.262;2023-03-21T18:33:48;21.50;32.90
27823;DHT22;29019;47.630;8.262;2023-03-21T18:37:48;21.50;32.80
27823;DHT22;29019;47.630;8.262;2023-03-21T18:41:49;21.50;32.90
27823;DHT22;29019;47.630;8.262;2023-03-21T18:45:49;21.50;32.90
27823;DHT22;29019;47.630;8.262;2023-03-21T18:49:50;21.60;32.80
27823;DHT22;29019;47.630;8.262;2023-03-21T18:53:51;21.50;32.90
27823;DHT22;29019;47.630;8.262;2023-03-21T18:57:52;21.60;32.90
27823;DHT22;29019;47.630;8.262;2023-03-21T19:01:53;21.50;32.70
27823;DHT22;29019;47.630;8.262;2023-03-21T19:05:56;21.60;32.80
27823;DHT22;29019;47.630;8.262;2023-03-21T19:09:56;21.60;32.90
27823;DHT22;29019;47.630;8.262;2023-03-21T19:13:58;21.50;32.90
27823;DHT22;29019;47.630;8.262;2023-03-21T19:17:58;21.50;33.00
27823;DHT22;29019;47.630;8.262;2023-03-21T19:21:59;21.50;33.00
27823;DHT22;29019;47.630;8.262;2023-03-21T19:25:59;21.40;32.90
27823;DHT22;29019;47.630;8.262;2023-03-21T19:30:00;21.40;33.10
27823;DHT22;29019;47.630;8.262;2023-03-21T19:34:01;21.40;33.10
27823;DHT22;29019;47.630;8.262;2023-03-21T19:38:02;21.40;33.10
27823;DHT22;29019;47.630;8.262;2023-03-21T19:42:03;21.40;33.10
27823;DHT22;29019;47.630;8.262;2023-03-21T19:46:03;21.40;33.10
27823;DHT22;29019;47.630;8.262;2023-03-21T19:50:04;21.40;33.20
27823;DHT22;29019;47.630;8.262;2023-03-21T19:54:05;21.40;33.20
27823;DHT22;29019;47.630;8.262;2023-03-21T19:58:06;21.40;33.20
27823;DHT22;29019;47.630;8.262;2023-03-21T20:02:08;21.40;33.10
27823;DHT22;29019;47.630;8.262;2023-03-21T20:06:09;21.40;33.00
27823;DHT22;29019;47.630;8.262;2023-03-21T20:10:10;21.50;33.20
27823;DHT22;29019;47.630;8.262;2023-03-21T20:14:11;21.50;33.30
27823;DHT22;29019;47.630;8.262;2023-03-21T20:18:11;21.50;33.10
27823;DHT22;29019;47.630;8.262;2023-03-21T20:22:13;21.50;33.10
27823;DHT22;29019;47.630;8.262;2023-03-21T20:26:13;21.60;33.00
27823;DHT22;29019;47.630;8.262;2023-03-21T20:30:15;21.60;33.00
27823;DHT22;29019;47.630;8.262;2023-03-21T20:34:16;21.60;33.00
27823;DHT22;29019;47.630;8.262;2023-03-21T20:38:17;21.60;33.00
27823;DHT22;29019;47.630;8.262;2023-03-21T20:42:19;21.60;33.10
27823;DHT22;29019;47.630;8.262;2023-03-21T20:46:20;21.60;33.10
27823;DHT22;29019;47.630;8.262;2023-03-21T20:50:20;21.60;33.10
27823;DHT22;29019;47.630;8.262;2023-03-21T20:54:21;21.60;33.20
27823;DHT22;29019;47.630;8.262;2023-03-21T20:58:21;21.60;33.20
27823;DHT22;29019;47.630;8.262;2023-03-21T21:02:22;21.50;33.30
27823;DHT22;29019;47.630;8.262;2023-03-21T21:06:23;21.50;33.10
27823;DHT22;29019;47.630;8.262;2023-03-21T21:10:23;21.50;33.30
27823;DHT22;29019;47.630;8.262;2023-03-21T21:14:24;21.50;33.40
27823;DHT22;29019;47.630;8.262;2023-03-21T21:18:25;21.50;33.40
27823;DHT22;29019;47.630;8.262;2023-03-21T21:22:25;21.40;33.40
27823;DHT22;29019;47.630;8.262;2023-03-21T21:26:27;21.40;33.40
27823;DHT22;29019;47.630;8.262;2023-03-21T21:30:28;21.50;33.50
27823;DHT22;29019;47.630;8.262;2023-03-21T21:34:28;21.40;33.30
27823;DHT22;29019;47.630;8.262;2023-03-21T21:38:29;21.40;33.30
27823;DHT22;29019;47.630;8.262;2023-03-21T21:42:30;21.40;33.30
27823;DHT22;29019;47.630;8.262;2023-03-21T21:46:30;21.40;33.40
27823;DHT22;29019;47.630;8.262;2023-03-21T21:50:31;21.40;33.40
27823;DHT22;29019;47.630;8.262;2023-03-21T21:54:32;21.40;33.40
27823;DHT22;29019;47.630;8.262;2023-03-21T21:58:36;21.40;33.40
27823;DHT22;29019;47.630;8.262;2023-03-21T22:02:38;21.40;33.40
27823;DHT22;29019;47.630;8.262;2023-03-21T22:06:39;21.40;33.30
27823;DHT22;29019;47.630;8.262;2023-03-21T22:10:43;21.40;33.30
27823;DHT22;29019;47.630;8.262;2023-03-21T22:14:43;21.40;33.40
27823;DHT22;29019;47.630;8.262;2023-03-21T22:18:44;21.40;33.30
27823;DHT22;29019;47.630;8.262;2023-03-21T22:22:44;21.40;33.40
27823;DHT22;29019;47.630;8.262;2023-03-21T22:26:45;21.40;33.40
27823;DHT22;29019;47.630;8.262;2023-03-21T22:30:45;21.40;33.40
27823;DHT22;29019;47.630;8.262;2023-03-21T22:34:46;21.40;33.30
27823;DHT22;29019;47.630;8.262;2023-03-21T22:38:46;21.40;33.40
27823;DHT22;29019;47.630;8.262;2023-03-21T22:42:47;21.30;33.30
27823;DHT22;29019;47.630;8.262;2023-03-21T22:46:47;21.30;33.40
27823;DHT22;29019;47.630;8.262;2023-03-21T22:50:48;21.30;33.40
27823;DHT22;29019;47.630;8.262;2023-03-21T22:54:48;21.30;33.50
27823;DHT22;29019;47.630;8.262;2023-03-21T22:58:49;21.30;33.50
27823;DHT22;29019;47.630;8.262;2023-03-21T23:02:49;21.30;33.40
27823;DHT22;29019;47.630;8.262;2023-03-21T23:06:50;21.20;33.40
27823;DHT22;29019;47.630;8.262;2023-03-21T23:10:50;21.20;33.50
27823;DHT22;29019;47.630;8.262;2023-03-21T23:14:51;21.20;33.50
27823;DHT22;29019;47.630;8.262;2023-03-21T23:18:51;21.20;33.50
27823;DHT22;29019;47.630;8.262;2023-03-21T23:22:52;21.10;33.40
27823;DHT22;29019;47.630;8.262;2023-03-21T23:26:53;21.10;33.40
27823;DHT22;29019;47.630;8.262;2023-03-21T23:30:53;21.10;33.50
27823;DHT22;29019;47.630;8.262;2023-03-21T23:34:54;21.10;33.40
27823;DHT22;29019;47.630;8.262;2023-03-21T23:38:54;21.10;33.60
27823;DHT22;29019;47.630;8.262;2023-03-21T23:42:55;21.10;33.50
27823;DHT22;29019;47.630;8.262;2023-03-21T23:46:55;21.00;33.50
27823;DHT22;29019;47.630;8.262;2023-03-21T23:50:56;21.00;33.50
27823;DHT22;29019;47.630;8.262;2023-03-21T23:54:57;21.00;33.50
27823;DHT22;29019;47.630;8.262;2023-03-21T23:58:57;21.00;33.50
